sensor_id;sensor_type;location;lat;lon;timestamp;P1;durP1;ratioP1;P2;durP2;ratioP2
19161;SDS011;9713;48.140;11.530;2023-10-31T00:01:39;1.13;;;0.60;;
19161;SDS011;9713;48.140;11.530;2023-10-31T00:05:22;0.83;;;0.60;;
19161;SDS011;9713;48.140;11.530;2023-10-31T00:09:06;1.20;;;0.50;;
19161;SDS011;9713;48.140;11.530;2023-10-31T00:12:49;1.47;;;0.50;;
19161;SDS011;9713;48.140;11.530;2023-10-31T00:16:32;0.67;;;0.50;;
19161;SDS011;9713;48.140;11.530;2023-10-31T00:20:15;1.00;;;0.40;;
19161;SDS011;9713;48.140;11.530;2023-10-31T00:23:58;0.30;;;0.30;;
19161;SDS011;9713;48.140;11.530;2023-10-31T00:27:42;0.93;;;0.40;;
19161;SDS011;9713;48.140;11.530;2023-10-31T00:31:25;0.67;;;0.43;;
19161;SDS011;9713;48.140;11.530;2023-10-31T00:35:08;0.37;;;0.37;;
19161;SDS011;9713;48.140;11.530;2023-10-31T00:38:53;0.40;;;0.33;;
19161;SDS011;9713;48.140;11.530;2023-10-31T00:42:36;0.30;;;0.30;;
19161;SDS011;9713;48.140;11.530;2023-10-31T00:46:20;0.57;;;0.33;;
19161;SDS011;9713;48.140;11.530;2023-10-31T00:50:03;0.80;;;0.37;;
19161;SDS011;9713;48.140;11.530;2023-10-31T00:53:47;0.50;;;0.30;;
19161;SDS011;9713;48.140;11.530;2023-10-31T00:57:30;0.60;;;0.50;;
19161;SDS011;9713;48.140;11.530;2023-10-31T01:01:13;0.40;;;0.37;;
19161;SDS011;9713;48.140;11.530;2023-10-31T01:04:59;1.03;;;0.33;;
19161;SDS011;9713;48.140;11.530;2023-10-31T01:08:41;0.20;;;0.20;;
19161;SDS011;9713;48.140;11.530;2023-10-31T01:12:24;0.50;;;0.30;;
19161;SDS011;9713;48.140;11.530;2023-10-31T01:16:09;0.20;;;0.20;;
19161;SDS011;9713;48.140;11.530;2023-10-31T01:19:51;0.33;;;0.20;;
19161;SDS011;9713;48.140;11.530;2023-10-31T01:23:36;0.20;;;0.20;;
19161;SDS011;9713;48.140;11.530;2023-10-31T01:27:18;4.73;;;0.30;;
19161;SDS011;9713;48.140;11.530;2023-10-31T01:31:01;0.20;;;0.20;;
19161;SDS011;9713;48.140;11.530;2023-10-31T01:34:44;0.73;;;0.30;;
19161;SDS011;9713;48.140;11.530;2023-10-31T01:38:27;0.50;;;0.30;;
19161;SDS011;9713;48.140;11.530;2023-10-31T01:42:11;0.40;;;0.27;;
19161;SDS011;9713;48.140;11.530;2023-10-31T01:45:56;0.23;;;0.23;;
19161;SDS011;9713;48.140;11.530;2023-10-31T01:49:38;0.20;;;0.20;;
19161;SDS011;9713;48.140;11.530;2023-10-31T01:53:22;0.30;;;0.30;;
19161;SDS011;9713;48.140;11.530;2023-10-31T01:57:05;0.57;;;0.20;;
19161;SDS011;9713;48.140;11.530;2023-10-31T02:00:49;0.40;;;0.30;;
19161;SDS011;9713;48.140;11.530;2023-10-31T02:04:33;0.20;;;0.20;;
19161;SDS011;9713;48.140;11.530;2023-10-31T02:08:16;0.20;;;0.20;;
19161;SDS011;9713;48.140;11.530;2023-10-31T02:11:59;0.20;;;0.20;;
19161;SDS011;9713;48.140;11.530;2023-10-31T02:15:41;0.93;;;0.20;;
19161;SDS011;9713;48.140;11.530;2023-10-31T02:19:26;0.20;;;0.20;;
19161;SDS011;9713;48.140;11.530;2023-10-31T02:23:10;1.17;;;0.20;;
19161;SDS011;9713;48.140;11.530;2023-10-31T02:26:53;0.63;;;0.20;;
19161;SDS011;9713;48.140;11.530;2023-10-31T02:30:36;0.20;;;0.10;;
19161;SDS011;9713;48.140;11.530;2023-10-31T02:34:19;1.97;;;0.20;;
19161;SDS011;9713;48.140;11.530;2023-10-31T02:38:01;0.47;;;0.20;;
19161;SDS011;9713;48.140;11.530;2023-10-31T02:41:45;0.20;;;0.20;;
19161;SDS011;9713;48.140;11.530;2023-10-31T02:45:28;1.00;;;0.20;;
19161;SDS011;9713;48.140;11.530;2023-10-31T02:49:11;0.20;;;0.20;;
19161;SDS011;9713;48.140;11.530;2023-10-31T02:52:54;0.37;;;0.20;;
19161;SDS011;9713;48.140;11.530;2023-10-31T02:56:36;0.40;;;0.20;;
19161;SDS011;9713;48.140;11.530;2023-10-31T03:00:21;0.60;;;0.20;;
19161;SDS011;9713;48.140;11.530;2023-10-31T03:04:04;0.73;;;0.13;;
19161;SDS011;9713;48.140;11.530;2023-10-31T03:07:47;3.10;;;0.37;;
19161;SDS011;9713;48.140;11.530;2023-10-31T03:11:30;1.40;;;0.20;;
19161;SDS011;9713;48.140;11.530;2023-10-31T03:15:14;0.30;;;0.10;;
19161;SDS011;9713;48.140;11.530;2023-10-31T03:18:59;0.17;;;0.17;;
19161;SDS011;9713;48.140;11.530;2023-10-31T03:22:42;0.10;;;0.10;;
19161;SDS011;9713;48.140;11.530;2023-10-31T03:26:25;0.33;;;0.20;;
19161;SDS011;9713;48.140;11.530;2023-10-31T03:30:08;0.37;;;0.30;;
19161;SDS011;9713;48.140;11.530;2023-10-31T03:33:51;0.60;;;0.20;;
19161;SDS011;9713;48.140;11.530;2023-10-31T03:37:36;0.20;;;0.20;;
19161;SDS011;9713;48.140;11.530;2023-10-31T03:41:22;0.20;;;0.20;;
19161;SDS011;9713;48.140;11.530;2023-10-31T03:45:06;0.20;;;0.20;;
19161;SDS011;9713;48.140;11.530;2023-10-31T03:48:49;0.40;;;0.40;;
19161;SDS011;9713;48.140;11.530;2023-10-31T03:52:32;0.10;;;0.10;;
19161;SDS011;9713;48.140;11.530;2023-10-31T03:56:16;0.20;;;0.20;;
19161;SDS011;9713;48.140;11.530;2023-10-31T03:59:59;0.33;;;0.10;;
19161;SDS011;9713;48.140;11.530;2023-10-31T04:03:44;0.50;;;0.20;;
19161;SDS011;9713;48.140;11.530;2023-10-31T04:07:27;1.80;;;0.20;;
19161;SDS011;9713;48.140;11.530;2023-10-31T04:11:10;0.30;;;0.30;;
19161;SDS011;9713;48.140;11.530;2023-10-31T04:14:54;0.33;;;0.20;;
19161;SDS011;9713;48.140;11.530;2023-10-31T04:18:37;0.60;;;0.30;;
19161;SDS011;9713;48.140;11.530;2023-10-31T04:22:20;0.27;;;0.27;;
19161;SDS011;9713;48.140;11.530;2023-10-31T04:26:03;1.13;;;0.30;;
19161;SDS011;9713;48.140;11.530;2023-10-31T04:29:46;1.40;;;0.40;;
19161;SDS011;9713;48.140;11.530;2023-10-31T04:33:30;0.57;;;0.40;;
19161;SDS011;9713;48.140;11.530;2023-10-31T04:37:13;2.83;;;0.37;;
19161;SDS011;9713;48.140;11.530;2023-10-31T04:40:56;1.67;;;0.30;;
19161;SDS011;9713;48.140;11.530;2023-10-31T04:44:39;0.77;;;0.40;;
19161;SDS011;9713;48.140;11.530;2023-10-31T04:48:22;1.37;;;0.60;;
19161;SDS011;9713;48.140;11.530;2023-10-31T04:52:06;1.33;;;0.33;;
19161;SDS011;9713;48.140;11.530;2023-10-31T04:55:49;1.63;;;0.40;;
19161;SDS011;9713;48.140;11.530;2023-10-31T04:59:31;1.53;;;0.50;;
19161;SDS011;9713;48.140;11.530;2023-10-31T05:03:14;2.20;;;0.33;;
19161;SDS011;9713;48.140;11.530;2023-10-31T05:06:59;0.90;;;0.43;;
19161;SDS011;9713;48.140;11.530;2023-10-31T05:10:43;1.23;;;0.60;;
19161;SDS011;9713;48.140;11.530;2023-10-31T05:14:28;1.57;;;0.60;;
19161;SDS011;9713;48.140;11.530;2023-10-31T05:18:11;1.47;;;0.50;;
19161;SDS011;9713;48.140;11.530;2023-10-31T05:21:54;0.63;;;0.40;;
19161;SDS011;9713;48.140;11.530;2023-10-31T05:25:37;1.17;;;0.40;;
19161;SDS011;9713;48.140;11.530;2023-10-31T05:29:21;0.57;;;0.40;;
19161;SDS011;9713;48.140;11.530;2023-10-31T05:33:04;1.17;;;0.57;;
19161;SDS011;9713;48.140;11.530;2023-10-31T05:36:47;1.20;;;0.50;;
19161;SDS011;9713;48.140;11.530;2023-10-31T05:40:30;0.50;;;0.47;;
19161;SDS011;9713;48.140;11.530;2023-10-31T05:44:16;2.67;;;0.53;;
19161;SDS011;9713;48.140;11.530;2023-10-31T05:48:00;2.03;;;0.67;;
19161;SDS011;9713;48.140;11.530;2023-10-31T05:51:43;1.20;;;0.57;;
19161;SDS011;9713;48.140;11.530;2023-10-31T05:55:27;2.00;;;0.70;;
19161;SDS011;9713;48.140;11.530;2023-10-31T05:59:09;2.47;;;0.50;;
19161;SDS011;9713;48.140;11.530;2023-10-31T06:02:52;2.30;;;0.60;;
19161;SDS011;9713;48.140;11.530;2023-10-31T06:06:38;1.57;;;0.60;;
19161;SDS011;9713;48.140;11.530;2023-10-31T06:10:21;1.97;;;0.70;;
19161;SDS011;9713;48.140;11.530;2023-10-31T06:14:04;1.23;;;0.63;;
19161;SDS011;9713;48.140;11.530;2023-10-31T06:17:47;2.00;;;0.80;;
19161;SDS011;9713;48.140;11.530;2023-10-31T06:21:30;3.43;;;1.00;;
19161;SDS011;9713;48.140;11.530;2023-10-31T06:25:15;3.43;;;1.03;;
19161;SDS011;9713;48.140;11.530;2023-10-31T06:28:57;1.40;;;0.77;;
19161;SDS011;9713;48.140;11.530;2023-10-31T06:33:00;1.80;;;0.70;;
19161;SDS011;9713;48.140;11.530;2023-10-31T06:36:44;1.00;;;0.60;;
19161;SDS011;9713;48.140;11.530;2023-10-31T06:40:28;1.60;;;0.73;;
19161;SDS011;9713;48.140;11.530;2023-10-31T06:44:11;2.40;;;0.90;;
19161;SDS011;9713;48.140;11.530;2023-10-31T06:47:54;1.57;;;0.67;;
19161;SDS011;9713;48.140;11.530;2023-10-31T06:51:38;2.20;;;0.50;;
19161;SDS011;9713;48.140;11.530;2023-10-31T06:55:21;2.70;;;0.60;;
19161;SDS011;9713;48.140;11.530;2023-10-31T06:59:05;2.20;;;0.73;;
19161;SDS011;9713;48.140;11.530;2023-10-31T07:02:49;2.33;;;1.00;;
19161;SDS011;9713;48.140;11.530;2023-10-31T07:06:33;2.07;;;0.87;;
19161;SDS011;9713;48.140;11.530;2023-10-31T07:10:16;2.47;;;0.70;;
19161;SDS011;9713;48.140;11.530;2023-10-31T07:13:58;6.97;;;1.00;;
19161;SDS011;9713;48.140;11.530;2023-10-31T07:17:43;2.63;;;0.87;;
19161;SDS011;9713;48.140;11.530;2023-10-31T07:21:26;1.37;;;0.70;;
19161;SDS011;9713;48.140;11.530;2023-10-31T07:25:09;1.83;;;0.80;;
19161;SDS011;9713;48.140;11.530;2023-10-31T07:28:52;2.17;;;0.80;;
19161;SDS011;9713;48.140;11.530;2023-10-31T07:32:36;2.90;;;0.80;;
19161;SDS011;9713;48.140;11.530;2023-10-31T07:36:20;2.20;;;0.70;;
19161;SDS011;9713;48.140;11.530;2023-10-31T07:40:03;1.17;;;0.60;;
19161;SDS011;9713;48.140;11.530;2023-10-31T07:43:47;1.27;;;0.60;;
19161;SDS011;9713;48.140;11.530;2023-10-31T07:47:30;2.13;;;0.60;;
19161;SDS011;9713;48.140;11.530;2023-10-31T07:51:13;2.20;;;0.83;;
19161;SDS011;9713;48.140;11.530;2023-10-31T07:54:57;2.83;;;0.60;;
19161;SDS011;9713;48.140;11.530;2023-10-31T07:58:40;1.93;;;0.77;;
19161;SDS011;9713;48.140;11.530;2023-10-31T08:02:22;2.53;;;0.60;;
19161;SDS011;9713;48.140;11.530;2023-10-31T08:06:06;2.37;;;0.67;;
19161;SDS011;9713;48.140;11.530;2023-10-31T08:09:49;2.03;;;0.70;;
19161;SDS011;9713;48.140;11.530;2023-10-31T08:13:33;7.50;;;1.30;;
19161;SDS011;9713;48.140;11.530;2023-10-31T08:17:16;2.10;;;0.60;;
19161;SDS011;9713;48.140;11.530;2023-10-31T08:20:59;2.63;;;0.70;;
19161;SDS011;9713;48.140;11.530;2023-10-31T08:24:42;2.87;;;0.70;;
19161;SDS011;9713;48.140;11.530;2023-10-31T08:28:25;2.57;;;0.90;;
19161;SDS011;9713;48.140;11.530;2023-10-31T08:32:09;3.93;;;0.80;;
19161;SDS011;9713;48.140;11.530;2023-10-31T08:35:52;1.80;;;0.70;;
19161;SDS011;9713;48.140;11.530;2023-10-31T08:39:35;2.13;;;0.90;;
19161;SDS011;9713;48.140;11.530;2023-10-31T08:43:17;3.63;;;0.87;;
19161;SDS011;9713;48.140;11.530;2023-10-31T08:47:00;3.97;;;0.90;;
19161;SDS011;9713;48.140;11.530;2023-10-31T08:50:45;2.40;;;1.00;;
19161;SDS011;9713;48.140;11.530;2023-10-31T08:54:27;3.87;;;0.90;;
19161;SDS011;9713;48.140;11.530;2023-10-31T08:58:10;6.10;;;1.03;;
19161;SDS011;9713;48.140;11.530;2023-10-31T09:01:53;2.17;;;0.70;;
19161;SDS011;9713;48.140;11.530;2023-10-31T09:05:36;1.23;;;0.73;;
19161;SDS011;9713;48.140;11.530;2023-10-31T09:09:20;3.90;;;1.13;;
19161;SDS011;9713;48.140;11.530;2023-10-31T09:13:03;4.60;;;1.47;;
19161;SDS011;9713;48.140;11.530;2023-10-31T09:16:46;5.53;;;1.20;;
19161;SDS011;9713;48.140;11.530;2023-10-31T09:20:29;6.17;;;1.70;;
19161;SDS011;9713;48.140;11.530;2023-10-31T09:24:12;4.67;;;0.83;;
19161;SDS011;9713;48.140;11.530;2023-10-31T09:27:56;4.10;;;0.80;;
19161;SDS011;9713;48.140;11.530;2023-10-31T09:31:40;2.47;;;0.80;;
19161;SDS011;9713;48.140;11.530;2023-10-31T09:35:23;3.23;;;0.87;;
19161;SDS011;9713;48.140;11.530;2023-10-31T09:39:06;3.20;;;0.97;;
19161;SDS011;9713;48.140;11.530;2023-10-31T09:42:49;2.80;;;0.80;;
19161;SDS011;9713;48.140;11.530;2023-10-31T09:46:34;2.13;;;0.77;;
19161;SDS011;9713;48.140;11.530;2023-10-31T09:50:17;5.20;;;1.53;;
19161;SDS011;9713;48.140;11.530;2023-10-31T09:54:01;4.23;;;1.10;;
19161;SDS011;9713;48.140;11.530;2023-10-31T09:57:45;2.03;;;0.73;;
19161;SDS011;9713;48.140;11.530;2023-10-31T10:01:28;3.27;;;0.90;;
19161;SDS011;9713;48.140;11.530;2023-10-31T10:05:12;5.27;;;1.43;;
19161;SDS011;9713;48.140;11.530;2023-10-31T10:08:57;3.77;;;0.80;;
19161;SDS011;9713;48.140;11.530;2023-10-31T10:12:41;1.63;;;0.80;;
19161;SDS011;9713;48.140;11.530;2023-10-31T10:16:27;4.17;;;0.90;;
19161;SDS011;9713;48.140;11.530;2023-10-31T10:20:15;1.00;;;0.63;;
19161;SDS011;9713;48.140;11.530;2023-10-31T10:23:58;5.63;;;1.50;;
19161;SDS011;9713;48.140;11.530;2023-10-31T10:27:40;2.47;;;1.00;;
19161;SDS011;9713;48.140;11.530;2023-10-31T10:31:23;1.83;;;0.77;;
19161;SDS011;9713;48.140;11.530;2023-10-31T10:35:06;3.83;;;0.90;;
19161;SDS011;9713;48.140;11.530;2023-10-31T10:38:52;3.30;;;0.87;;
19161;SDS011;9713;48.140;11.530;2023-10-31T10:42:41;4.73;;;1.03;;
19161;SDS011;9713;48.140;11.530;2023-10-31T10:46:26;4.80;;;1.07;;
19161;SDS011;9713;48.140;11.530;2023-10-31T10:50:11;2.67;;;0.87;;
19161;SDS011;9713;48.140;11.530;2023-10-31T10:53:57;7.10;;;1.00;;
19161;SDS011;9713;48.140;11.530;2023-10-31T10:57:42;2.40;;;0.93;;
19161;SDS011;9713;48.140;11.530;2023-10-31T11:01:29;2.50;;;0.80;;
19161;SDS011;9713;48.140;11.530;2023-10-31T11:05:13;3.80;;;1.03;;
19161;SDS011;9713;48.140;11.530;2023-10-31T11:08:57;1.83;;;0.93;;
19161;SDS011;9713;48.140;11.530;2023-10-31T11:12:41;2.33;;;1.00;;
19161;SDS011;9713;48.140;11.530;2023-10-31T11:16:26;2.27;;;0.80;;
19161;SDS011;9713;48.140;11.530;2023-10-31T11:20:13;3.27;;;1.00;;
19161;SDS011;9713;48.140;11.530;2023-10-31T11:23:59;3.90;;;0.80;;
19161;SDS011;9713;48.140;11.530;2023-10-31T11:27:42;2.97;;;1.10;;
19161;SDS011;9713;48.140;11.530;2023-10-31T11:31:26;3.50;;;1.00;;
19161;SDS011;9713;48.140;11.530;2023-10-31T11:35:09;4.03;;;1.00;;
19161;SDS011;9713;48.140;11.530;2023-10-31T11:38:59;3.03;;;0.90;;
19161;SDS011;9713;48.140;11.530;2023-10-31T11:42:52;3.83;;;1.27;;
19161;SDS011;9713;48.140;11.530;2023-10-31T11:46:36;4.13;;;1.00;;
19161;SDS011;9713;48.140;11.530;2023-10-31T11:50:19;2.13;;;1.10;;
19161;SDS011;9713;48.140;11.530;2023-10-31T11:54:03;3.03;;;0.80;;
19161;SDS011;9713;48.140;11.530;2023-10-31T11:57:49;3.27;;;0.67;;
19161;SDS011;9713;48.140;11.530;2023-10-31T12:01:32;3.33;;;0.90;;
19161;SDS011;9713;48.140;11.530;2023-10-31T12:05:15;3.13;;;0.80;;
19161;SDS011;9713;48.140;11.530;2023-10-31T12:08:59;2.50;;;0.87;;
19161;SDS011;9713;48.140;11.530;2023-10-31T12:12:44;1.40;;;0.80;;
19161;SDS011;9713;48.140;11.530;2023-10-31T12:16:28;3.17;;;0.80;;
19161;SDS011;9713;48.140;11.530;2023-10-31T12:20:11;5.20;;;0.90;;
19161;SDS011;9713;48.140;11.530;2023-10-31T12:24:01;2.43;;;0.80;;
19161;SDS011;9713;48.140;11.530;2023-10-31T12:27:47;4.00;;;0.90;;
19161;SDS011;9713;48.140;11.530;2023-10-31T12:31:30;3.33;;;0.80;;
19161;SDS011;9713;48.140;11.530;2023-10-31T12:35:14;4.77;;;1.53;;
19161;SDS011;9713;48.140;11.530;2023-10-31T12:38:58;5.03;;;0.80;;
19161;SDS011;9713;48.140;11.530;2023-10-31T12:42:41;2.07;;;0.70;;
19161;SDS011;9713;48.140;11.530;2023-10-31T12:46:26;2.60;;;0.73;;
19161;SDS011;9713;48.140;11.530;2023-10-31T12:50:12;1.40;;;0.53;;
19161;SDS011;9713;48.140;11.530;2023-10-31T12:53:55;2.63;;;0.70;;
19161;SDS011;9713;48.140;11.530;2023-10-31T12:57:38;0.60;;;0.40;;
19161;SDS011;9713;48.140;11.530;2023-10-31T13:01:21;1.57;;;0.70;;
19161;SDS011;9713;48.140;11.530;2023-10-31T13:05:09;0.70;;;0.40;;
19161;SDS011;9713;48.140;11.530;2023-10-31T13:08:55;2.57;;;0.57;;
19161;SDS011;9713;48.140;11.530;2023-10-31T13:12:38;3.53;;;0.87;;
19161;SDS011;9713;48.140;11.530;2023-10-31T13:16:21;1.30;;;0.43;;
19161;SDS011;9713;48.140;11.530;2023-10-31T13:20:04;1.60;;;0.50;;
19161;SDS011;9713;48.140;11.530;2023-10-31T13:23:50;1.77;;;0.70;;
19161;SDS011;9713;48.140;11.530;2023-10-31T13:27:32;1.20;;;0.60;;
19161;SDS011;9713;48.140;11.530;2023-10-31T13:31:16;1.33;;;0.63;;
19161;SDS011;9713;48.140;11.530;2023-10-31T13:34:59;2.57;;;0.67;;
19161;SDS011;9713;48.140;11.530;2023-10-31T13:38:42;1.13;;;0.60;;
19161;SDS011;9713;48.140;11.530;2023-10-31T13:42:26;1.30;;;0.60;;
19161;SDS011;9713;48.140;11.530;2023-10-31T13:46:09;0.80;;;0.60;;
19161;SDS011;9713;48.140;11.530;2023-10-31T13:49:52;1.27;;;0.60;;
19161;SDS011;9713;48.140;11.530;2023-10-31T13:53:35;1.33;;;0.60;;
19161;SDS011;9713;48.140;11.530;2023-10-31T13:57:18;1.67;;;0.63;;
19161;SDS011;9713;48.140;11.530;2023-10-31T14:01:02;1.80;;;0.63;;
19161;SDS011;9713;48.140;11.530;2023-10-31T14:04:45;1.87;;;0.83;;
19161;SDS011;9713;48.140;11.530;2023-10-31T14:08:28;1.83;;;0.77;;
19161;SDS011;9713;48.140;11.530;2023-10-31T14:12:11;1.70;;;0.83;;
19161;SDS011;9713;48.140;11.530;2023-10-31T14:15:54;1.33;;;0.63;;
19161;SDS011;9713;48.140;11.530;2023-10-31T14:19:38;2.63;;;0.90;;
19161;SDS011;9713;48.140;11.530;2023-10-31T14:23:23;2.07;;;0.70;;
19161;SDS011;9713;48.140;11.530;2023-10-31T14:27:06;1.60;;;1.07;;
19161;SDS011;9713;48.140;11.530;2023-10-31T14:30:49;2.50;;;1.10;;
19161;SDS011;9713;48.140;11.530;2023-10-31T14:34:33;2.30;;;1.10;;
19161;SDS011;9713;48.140;11.530;2023-10-31T14:38:17;2.07;;;0.97;;
19161;SDS011;9713;48.140;11.530;2023-10-31T14:42:00;1.83;;;0.90;;
19161;SDS011;9713;48.140;11.530;2023-10-31T14:45:43;2.00;;;1.10;;
19161;SDS011;9713;48.140;11.530;2023-10-31T14:49:26;1.70;;;0.87;;
19161;SDS011;9713;48.140;11.530;2023-10-31T14:53:09;2.67;;;1.00;;
19161;SDS011;9713;48.140;11.530;2023-10-31T14:56:53;1.83;;;0.90;;
19161;SDS011;9713;48.140;11.530;2023-10-31T15:00:36;2.23;;;0.90;;
19161;SDS011;9713;48.140;11.530;2023-10-31T15:04:19;4.90;;;1.13;;
19161;SDS011;9713;48.140;11.530;2023-10-31T15:08:02;3.93;;;0.83;;
19161;SDS011;9713;48.140;11.530;2023-10-31T15:11:45;1.90;;;0.90;;
19161;SDS011;9713;48.140;11.530;2023-10-31T15:15:29;2.87;;;1.00;;
19161;SDS011;9713;48.140;11.530;2023-10-31T15:19:12;2.30;;;1.30;;
19161;SDS011;9713;48.140;11.530;2023-10-31T15:22:55;2.13;;;1.00;;
19161;SDS011;9713;48.140;11.530;2023-10-31T15:26:38;2.60;;;1.00;;
19161;SDS011;9713;48.140;11.530;2023-10-31T15:30:20;2.03;;;0.97;;
19161;SDS011;9713;48.140;11.530;2023-10-31T15:34:05;3.13;;;1.00;;
19161;SDS011;9713;48.140;11.530;2023-10-31T15:37:47;3.83;;;1.20;;
19161;SDS011;9713;48.140;11.530;2023-10-31T15:41:31;1.50;;;0.97;;
19161;SDS011;9713;48.140;11.530;2023-10-31T15:45:14;1.90;;;0.90;;
19161;SDS011;9713;48.140;11.530;2023-10-31T15:48:56;1.63;;;1.00;;
19161;SDS011;9713;48.140;11.530;2023-10-31T15:52:41;2.17;;;1.10;;
19161;SDS011;9713;48.140;11.530;2023-10-31T15:56:24;2.13;;;1.10;;
19161;SDS011;9713;48.140;11.530;2023-10-31T16:00:07;2.23;;;1.17;;
19161;SDS011;9713;48.140;11.530;2023-10-31T16:03:53;2.57;;;1.33;;
19161;SDS011;9713;48.140;11.530;2023-10-31T16:07:36;4.13;;;1.60;;
19161;SDS011;9713;48.140;11.530;2023-10-31T16:11:20;4.50;;;1.60;;
19161;SDS011;9713;48.140;11.530;2023-10-31T16:15:05;2.40;;;1.20;;
19161;SDS011;9713;48.140;11.530;2023-10-31T16:18:48;2.70;;;1.30;;
19161;SDS011;9713;48.140;11.530;2023-10-31T16:22:31;1.93;;;1.40;;
19161;SDS011;9713;48.140;11.530;2023-10-31T16:26:14;2.47;;;1.37;;
19161;SDS011;9713;48.140;11.530;2023-10-31T16:29:58;2.87;;;1.50;;
19161;SDS011;9713;48.140;11.530;2023-10-31T16:33:41;4.80;;;1.53;;
19161;SDS011;9713;48.140;11.530;2023-10-31T16:37:24;3.63;;;1.63;;
19161;SDS011;9713;48.140;11.530;2023-10-31T16:41:07;2.63;;;1.60;;
19161;SDS011;9713;48.140;11.530;2023-10-31T16:44:51;3.17;;;1.30;;
19161;SDS011;9713;48.140;11.530;2023-10-31T16:48:36;2.63;;;1.37;;
19161;SDS011;9713;48.140;11.530;2023-10-31T16:52:18;2.90;;;1.30;;
19161;SDS011;9713;48.140;11.530;2023-10-31T16:56:01;2.33;;;1.47;;
19161;SDS011;9713;48.140;11.530;2023-10-31T16:59:44;3.40;;;1.57;;
19161;SDS011;9713;48.140;11.530;2023-10-31T17:03:27;3.47;;;1.50;;
19161;SDS011;9713;48.140;11.530;2023-10-31T17:07:11;3.67;;;1.70;;
19161;SDS011;9713;48.140;11.530;2023-10-31T17:10:54;3.30;;;1.50;;
19161;SDS011;9713;48.140;11.530;2023-10-31T17:14:37;2.47;;;1.50;;
19161;SDS011;9713;48.140;11.530;2023-10-31T17:18:20;2.83;;;1.60;;
19161;SDS011;9713;48.140;11.530;2023-10-31T17:22:03;4.13;;;1.90;;
19161;SDS011;9713;48.140;11.530;2023-10-31T17:25:48;2.33;;;1.70;;
19161;SDS011;9713;48.140;11.530;2023-10-31T17:29:31;3.30;;;1.60;;
19161;SDS011;9713;48.140;11.530;2023-10-31T17:33:14;3.37;;;1.50;;
19161;SDS011;9713;48.140;11.530;2023-10-31T17:36:57;2.83;;;1.50;;
19161;SDS011;9713;48.140;11.530;2023-10-31T17:40:40;3.50;;;1.70;;
19161;SDS011;9713;48.140;11.530;2023-10-31T17:44:24;3.27;;;1.50;;
19161;SDS011;9713;48.140;11.530;2023-10-31T17:48:09;3.20;;;1.23;;
19161;SDS011;9713;48.140;11.530;2023-10-31T17:51:51;2.13;;;1.40;;
19161;SDS011;9713;48.140;11.530;2023-10-31T17:55:34;2.67;;;1.40;;
19161;SDS011;9713;48.140;11.530;2023-10-31T17:59:17;1.80;;;1.50;;
19161;SDS011;9713;48.140;11.530;2023-10-31T18:03:01;1.80;;;1.30;;
19161;SDS011;9713;48.140;11.530;2023-10-31T18:06:44;3.23;;;1.50;;
19161;SDS011;9713;48.140;11.530;2023-10-31T18:10:27;2.77;;;1.43;;
19161;SDS011;9713;48.140;11.530;2023-10-31T18:14:10;2.23;;;1.40;;
19161;SDS011;9713;48.140;11.530;2023-10-31T18:17:52;2.43;;;1.70;;
19161;SDS011;9713;48.140;11.530;2023-10-31T18:21:37;7.17;;;1.60;;
19161;SDS011;9713;48.140;11.530;2023-10-31T18:25:21;1.97;;;1.20;;
19161;SDS011;9713;48.140;11.530;2023-10-31T18:29:03;2.40;;;1.30;;
19161;SDS011;9713;48.140;11.530;2023-10-31T18:32:46;2.63;;;1.43;;
19161;SDS011;9713;48.140;11.530;2023-10-31T18:36:29;3.57;;;1.33;;
19161;SDS011;9713;48.140;11.530;2023-10-31T18:40:21;1.90;;;0.90;;
19161;SDS011;9713;48.140;11.530;2023-10-31T18:44:04;2.10;;;1.40;;
19161;SDS011;9713;48.140;11.530;2023-10-31T18:48:07;2.47;;;1.70;;
19161;SDS011;9713;48.140;11.530;2023-10-31T18:51:51;3.60;;;1.50;;
19161;SDS011;9713;48.140;11.530;2023-10-31T18:55:35;3.37;;;1.70;;
19161;SDS011;9713;48.140;11.530;2023-10-31T18:59:18;4.90;;;2.10;;
19161;SDS011;9713;48.140;11.530;2023-10-31T19:03:01;3.50;;;1.70;;
19161;SDS011;9713;48.140;11.530;2023-10-31T19:06:44;2.47;;;1.53;;
19161;SDS011;9713;48.140;11.530;2023-10-31T19:10:27;2.50;;;1.70;;
19161;SDS011;9713;48.140;11.530;2023-10-31T19:14:11;2.50;;;1.50;;
19161;SDS011;9713;48.140;11.530;2023-10-31T19:17:54;2.27;;;1.60;;
19161;SDS011;9713;48.140;11.530;2023-10-31T19:21:37;2.27;;;1.47;;
19161;SDS011;9713;48.140;11.530;2023-10-31T19:25:20;1.90;;;1.60;;
19161;SDS011;9713;48.140;11.530;2023-10-31T19:29:04;3.73;;;1.50;;
19161;SDS011;9713;48.140;11.530;2023-10-31T19:32:48;1.97;;;1.50;;
19161;SDS011;9713;48.140;11.530;2023-10-31T19:36:32;2.20;;;1.67;;
19161;SDS011;9713;48.140;11.530;2023-10-31T19:40:14;3.03;;;1.70;;
19161;SDS011;9713;48.140;11.530;2023-10-31T19:43:57;4.50;;;1.67;;
19161;SDS011;9713;48.140;11.530;2023-10-31T19:47:43;2.10;;;1.60;;
19161;SDS011;9713;48.140;11.530;2023-10-31T19:51:27;2.30;;;1.47;;
19161;SDS011;9713;48.140;11.530;2023-10-31T19:55:10;3.57;;;1.53;;
19161;SDS011;9713;48.140;11.530;2023-10-31T19:58:53;3.50;;;1.97;;
19161;SDS011;9713;48.140;11.530;2023-10-31T20:02:37;2.40;;;1.60;;
19161;SDS011;9713;48.140;11.530;2023-10-31T20:06:23;1.60;;;1.20;;
19161;SDS011;9713;48.140;11.530;2023-10-31T20:10:10;1.83;;;1.50;;
19161;SDS011;9713;48.140;11.530;2023-10-31T20:13:53;2.33;;;1.40;;
19161;SDS011;9713;48.140;11.530;2023-10-31T20:17:36;1.97;;;1.20;;
19161;SDS011;9713;48.140;11.530;2023-10-31T20:21:19;2.43;;;1.13;;
19161;SDS011;9713;48.140;11.530;2023-10-31T20:25:02;1.33;;;1.00;;
19161;SDS011;9713;48.140;11.530;2023-10-31T20:28:47;1.40;;;1.10;;
19161;SDS011;9713;48.140;11.530;2023-10-31T20:32:30;2.00;;;1.30;;
19161;SDS011;9713;48.140;11.530;2023-10-31T20:36:15;3.00;;;1.33;;
19161;SDS011;9713;48.140;11.530;2023-10-31T20:39:59;2.37;;;0.90;;
19161;SDS011;9713;48.140;11.530;2023-10-31T20:43:42;1.23;;;1.00;;
19161;SDS011;9713;48.140;11.530;2023-10-31T20:47:26;2.00;;;1.10;;
19161;SDS011;9713;48.140;11.530;2023-10-31T20:51:09;1.47;;;1.20;;
19161;SDS011;9713;48.140;11.530;2023-10-31T20:54:51;2.13;;;1.10;;
19161;SDS011;9713;48.140;11.530;2023-10-31T20:58:35;2.73;;;1.20;;
19161;SDS011;9713;48.140;11.530;2023-10-31T21:02:18;1.47;;;1.20;;
19161;SDS011;9713;48.140;11.530;2023-10-31T21:06:03;2.50;;;1.00;;
19161;SDS011;9713;48.140;11.530;2023-10-31T21:09:47;4.03;;;2.40;;
19161;SDS011;9713;48.140;11.530;2023-10-31T21:13:29;2.07;;;1.37;;
19161;SDS011;9713;48.140;11.530;2023-10-31T21:17:12;3.10;;;1.40;;
19161;SDS011;9713;48.140;11.530;2023-10-31T21:20:55;2.37;;;1.50;;
19161;SDS011;9713;48.140;11.530;2023-10-31T21:24:39;4.77;;;2.40;;
19161;SDS011;9713;48.140;11.530;2023-10-31T21:28:22;1.93;;;1.20;;
19161;SDS011;9713;48.140;11.530;2023-10-31T21:32:06;2.33;;;1.00;;
19161;SDS011;9713;48.140;11.530;2023-10-31T21:35:49;1.87;;;1.23;;
19161;SDS011;9713;48.140;11.530;2023-10-31T21:39:32;2.30;;;1.30;;
19161;SDS011;9713;48.140;11.530;2023-10-31T21:43:16;1.90;;;1.10;;
19161;SDS011;9713;48.140;11.530;2023-10-31T21:46:59;1.93;;;1.10;;
19161;SDS011;9713;48.140;11.530;2023-10-31T21:50:42;1.63;;;0.90;;
19161;SDS011;9713;48.140;11.530;2023-10-31T21:54:25;1.60;;;1.00;;
19161;SDS011;9713;48.140;11.530;2023-10-31T21:58:07;1.53;;;0.80;;
19161;SDS011;9713;48.140;11.530;2023-10-31T22:01:52;1.90;;;1.03;;
19161;SDS011;9713;48.140;11.530;2023-10-31T22:05:35;1.53;;;0.80;;
19161;SDS011;9713;48.140;11.530;2023-10-31T22:09:18;1.30;;;1.00;;
19161;SDS011;9713;48.140;11.530;2023-10-31T22:13:00;1.20;;;0.90;;
19161;SDS011;9713;48.140;11.530;2023-10-31T22:16:44;1.23;;;0.80;;
19161;SDS011;9713;48.140;11.530;2023-10-31T22:20:28;1.23;;;0.80;;
19161;SDS011;9713;48.140;11.530;2023-10-31T22:24:11;2.40;;;0.80;;
19161;SDS011;9713;48.140;11.530;2023-10-31T22:27:54;2.10;;;0.80;;